sensor_id;sensor_type;location;lat;lon;timestamp;P1;durP1;ratioP1;P2;durP2;ratioP2
66175;SDS011;52977;44.816;20.538;2022-08-21T00:01:02;29.13;;;14.07;;
66175;SDS011;52977;44.816;20.538;2022-08-21T00:03:31;33.42;;;13.82;;
66175;SDS011;52977;44.816;20.538;2022-08-21T00:05:57;26.27;;;12.95;;
66175;SDS011;52977;44.816;20.538;2022-08-21T00:08:22;27.00;;;13.13;;
66175;SDS011;52977;44.816;20.538;2022-08-21T00:10:48;29.88;;;14.73;;
66175;SDS011;52977;44.816;20.538;2022-08-21T00:13:15;25.85;;;14.18;;
66175;SDS011;52977;44.816;20.538;2022-08-21T00:15:42;29.52;;;14.98;;
66175;SDS011;52977;44.816;20.538;2022-08-21T00:18:09;27.85;;;13.98;;
66175;SDS011;52977;44.816;20.538;2022-08-21T00:20:36;24.33;;;13.65;;
66175;SDS011;52977;44.816;20.538;2022-08-21T00:23:03;29.70;;;15.23;;
66175;SDS011;52977;44.816;20.538;2022-08-21T00:25:28;25.70;;;13.57;;
66175;SDS011;52977;44.816;20.538;2022-08-21T00:27:55;26.30;;;14.00;;
66175;SDS011;52977;44.816;20.538;2022-08-21T00:30:21;27.60;;;14.48;;
66175;SDS011;52977;44.816;20.538;2022-08-21T00:32:48;28.60;;;13.27;;
66175;SDS011;52977;44.816;20.538;2022-08-21T00:35:15;28.67;;;14.32;;
66175;SDS011;52977;44.816;20.538;2022-08-21T00:37:44;23.90;;;12.93;;
66175;SDS011;52977;44.816;20.538;2022-08-21T00:40:12;29.60;;;13.45;;
66175;SDS011;52977;44.816;20.538;2022-08-21T00:42:39;28.47;;;14.53;;
66175;SDS011;52977;44.816;20.538;2022-08-21T00:45:05;32.70;;;15.40;;
66175;SDS011;52977;44.816;20.538;2022-08-21T00:47:32;30.08;;;14.40;;
66175;SDS011;52977;44.816;20.538;2022-08-21T00:49:59;27.80;;;15.35;;
66175;SDS011;52977;44.816;20.538;2022-08-21T00:52:25;36.00;;;15.60;;
66175;SDS011;52977;44.816;20.538;2022-08-21T00:54:56;31.45;;;16.13;;
66175;SDS011;52977;44.816;20.538;2022-08-21T00:57:26;32.58;;;16.88;;
66175;SDS011;52977;44.816;20.538;2022-08-21T00:59:56;26.95;;;14.43;;
66175;SDS011;52977;44.816;20.538;2022-08-21T01:02:25;27.30;;;14.82;;
66175;SDS011;52977;44.816;20.538;2022-08-21T01:04:51;27.98;;;13.32;;
66175;SDS011;52977;44.816;20.538;2022-08-21T01:07:17;23.45;;;11.95;;
66175;SDS011;52977;44.816;20.538;2022-08-21T01:09:43;25.05;;;10.82;;
66175;SDS011;52977;44.816;20.538;2022-08-21T01:12:11;18.27;;;8.85;;
66175;SDS011;52977;44.816;20.538;2022-08-21T01:14:37;17.48;;;8.50;;
66175;SDS011;52977;44.816;20.538;2022-08-21T01:17:04;13.77;;;7.45;;
66175;SDS011;52977;44.816;20.538;2022-08-21T01:19:31;17.63;;;6.72;;
66175;SDS011;52977;44.816;20.538;2022-08-21T01:21:57;12.05;;;5.30;;
66175;SDS011;52977;44.816;20.538;2022-08-21T01:24:24;11.05;;;5.15;;
66175;SDS011;52977;44.816;20.538;2022-08-21T01:26:50;10.63;;;4.60;;
66175;SDS011;52977;44.816;20.538;2022-08-21T01:29:23;9.02;;;3.95;;
66175;SDS011;52977;44.816;20.538;2022-08-21T01:31:55;7.60;;;3.30;;
66175;SDS011;52977;44.816;20.538;2022-08-21T01:34:21;5.53;;;2.85;;
66175;SDS011;52977;44.816;20.538;2022-08-21T01:36:47;4.53;;;2.33;;
66175;SDS011;52977;44.816;20.538;2022-08-21T01:39:13;3.13;;;2.03;;
66175;SDS011;52977;44.816;20.538;2022-08-21T01:41:40;3.65;;;2.30;;
66175;SDS011;52977;44.816;20.538;2022-08-21T01:44:05;3.45;;;2.00;;
66175;SDS011;52977;44.816;20.538;2022-08-21T01:46:31;3.78;;;1.80;;
66175;SDS011;52977;44.816;20.538;2022-08-21T01:48:57;5.03;;;2.55;;
66175;SDS011;52977;44.816;20.538;2022-08-21T01:51:23;5.28;;;2.50;;
66175;SDS011;52977;44.816;20.538;2022-08-21T01:53:48;4.00;;;2.33;;
66175;SDS011;52977;44.816;20.538;2022-08-21T01:56:15;6.28;;;2.40;;
66175;SDS011;52977;44.816;20.538;2022-08-21T01:58:42;5.55;;;2.45;;
66175;SDS011;52977;44.816;20.538;2022-08-21T02:01:10;4.70;;;1.88;;
66175;SDS011;52977;44.816;20.538;2022-08-21T02:03:36;2.92;;;1.70;;
66175;SDS011;52977;44.816;20.538;2022-08-21T02:06:03;3.95;;;2.08;;
66175;SDS011;52977;44.816;20.538;2022-08-21T02:08:31;5.25;;;1.95;;
66175;SDS011;52977;44.816;20.538;2022-08-21T02:10:57;4.93;;;1.88;;
66175;SDS011;52977;44.816;20.538;2022-08-21T02:13:23;3.83;;;1.95;;
66175;SDS011;52977;44.816;20.538;2022-08-21T02:15:49;5.78;;;2.00;;
66175;SDS011;52977;44.816;20.538;2022-08-21T02:18:15;3.13;;;1.70;;
66175;SDS011;52977;44.816;20.538;2022-08-21T02:20:42;4.20;;;1.63;;
66175;SDS011;52977;44.816;20.538;2022-08-21T02:23:11;4.82;;;1.63;;
66175;SDS011;52977;44.816;20.538;2022-08-21T02:25:38;4.07;;;1.80;;
66175;SDS011;52977;44.816;20.538;2022-08-21T02:28:06;5.47;;;2.15;;
66175;SDS011;52977;44.816;20.538;2022-08-21T02:30:34;3.72;;;1.73;;
66175;SDS011;52977;44.816;20.538;2022-08-21T02:33:06;5.47;;;2.13;;
66175;SDS011;52977;44.816;20.538;2022-08-21T02:35:32;4.32;;;2.05;;
66175;SDS011;52977;44.816;20.538;2022-08-21T02:37:59;5.47;;;2.53;;
66175;SDS011;52977;44.816;20.538;2022-08-21T02:40:28;8.15;;;2.10;;
66175;SDS011;52977;44.816;20.538;2022-08-21T02:42:57;5.55;;;2.42;;
66175;SDS011;52977;44.816;20.538;2022-08-21T02:45:24;8.90;;;2.90;;
66175;SDS011;52977;44.816;20.538;2022-08-21T02:47:50;10.45;;;2.67;;
66175;SDS011;52977;44.816;20.538;2022-08-21T02:50:28;5.57;;;2.67;;
66175;SDS011;52977;44.816;20.538;2022-08-21T02:52:56;6.70;;;2.53;;
66175;SDS011;52977;44.816;20.538;2022-08-21T02:55:23;5.82;;;2.47;;
66175;SDS011;52977;44.816;20.538;2022-08-21T02:57:52;4.90;;;2.55;;
66175;SDS011;52977;44.816;20.538;2022-08-21T03:00:19;4.57;;;2.40;;
66175;SDS011;52977;44.816;20.538;2022-08-21T03:02:47;4.80;;;2.53;;
66175;SDS011;52977;44.816;20.538;2022-08-21T03:05:13;5.50;;;2.45;;
66175;SDS011;52977;44.816;20.538;2022-08-21T03:07:40;4.90;;;2.42;;
66175;SDS011;52977;44.816;20.538;2022-08-21T03:10:06;4.60;;;2.47;;
66175;SDS011;52977;44.816;20.538;2022-08-21T03:12:33;6.68;;;2.33;;
66175;SDS011;52977;44.816;20.538;2022-08-21T03:15:01;4.70;;;2.60;;
66175;SDS011;52977;44.816;20.538;2022-08-21T03:17:31;3.88;;;1.85;;
66175;SDS011;52977;44.816;20.538;2022-08-21T03:19:57;5.55;;;2.30;;
66175;SDS011;52977;44.816;20.538;2022-08-21T03:22:23;8.10;;;2.70;;
66175;SDS011;52977;44.816;20.538;2022-08-21T03:24:49;4.32;;;2.15;;
66175;SDS011;52977;44.816;20.538;2022-08-21T03:27:14;3.78;;;2.03;;
66175;SDS011;52977;44.816;20.538;2022-08-21T03:29:40;4.57;;;2.05;;
66175;SDS011;52977;44.816;20.538;2022-08-21T03:32:06;4.32;;;2.28;;
66175;SDS011;52977;44.816;20.538;2022-08-21T03:34:35;5.63;;;2.47;;
66175;SDS011;52977;44.816;20.538;2022-08-21T03:37:02;4.10;;;2.67;;
66175;SDS011;52977;44.816;20.538;2022-08-21T03:39:28;6.43;;;2.83;;
66175;SDS011;52977;44.816;20.538;2022-08-21T03:41:54;6.78;;;2.92;;
66175;SDS011;52977;44.816;20.538;2022-08-21T03:44:20;5.13;;;3.03;;
66175;SDS011;52977;44.816;20.538;2022-08-21T03:46:46;5.68;;;3.33;;
66175;SDS011;52977;44.816;20.538;2022-08-21T03:49:12;5.45;;;3.38;;
66175;SDS011;52977;44.816;20.538;2022-08-21T03:51:38;6.18;;;3.47;;
66175;SDS011;52977;44.816;20.538;2022-08-21T03:54:04;5.30;;;3.30;;
66175;SDS011;52977;44.816;20.538;2022-08-21T03:56:30;6.82;;;3.17;;
66175;SDS011;52977;44.816;20.538;2022-08-21T03:58:55;6.05;;;3.53;;
66175;SDS011;52977;44.816;20.538;2022-08-21T04:01:21;5.32;;;3.03;;
66175;SDS011;52977;44.816;20.538;2022-08-21T04:03:47;4.80;;;2.78;;
66175;SDS011;52977;44.816;20.538;2022-08-21T04:06:12;4.65;;;2.75;;
66175;SDS011;52977;44.816;20.538;2022-08-21T04:08:38;4.22;;;2.38;;
66175;SDS011;52977;44.816;20.538;2022-08-21T04:11:04;5.15;;;2.60;;
66175;SDS011;52977;44.816;20.538;2022-08-21T04:13:30;4.78;;;2.63;;
66175;SDS011;52977;44.816;20.538;2022-08-21T04:15:56;6.38;;;2.90;;
66175;SDS011;52977;44.816;20.538;2022-08-21T04:18:23;4.45;;;2.85;;
66175;SDS011;52977;44.816;20.538;2022-08-21T04:20:50;6.57;;;3.28;;
66175;SDS011;52977;44.816;20.538;2022-08-21T04:23:17;5.68;;;3.40;;
66175;SDS011;52977;44.816;20.538;2022-08-21T04:25:44;5.03;;;3.15;;
66175;SDS011;52977;44.816;20.538;2022-08-21T04:28:09;7.43;;;3.65;;
66175;SDS011;52977;44.816;20.538;2022-08-21T04:30:35;5.95;;;3.67;;
66175;SDS011;52977;44.816;20.538;2022-08-21T04:33:01;6.45;;;3.75;;
66175;SDS011;52977;44.816;20.538;2022-08-21T04:35:28;6.07;;;3.70;;
66175;SDS011;52977;44.816;20.538;2022-08-21T04:37:55;5.78;;;3.78;;
66175;SDS011;52977;44.816;20.538;2022-08-21T04:40:22;9.15;;;4.63;;
66175;SDS011;52977;44.816;20.538;2022-08-21T04:42:50;7.53;;;4.45;;
66175;SDS011;52977;44.816;20.538;2022-08-21T04:48:02;8.73;;;4.40;;
66175;SDS011;52977;44.816;20.538;2022-08-21T04:56:02;8.02;;;5.10;;
66175;SDS011;52977;44.816;20.538;2022-08-21T04:58:33;8.45;;;4.85;;
66175;SDS011;52977;44.816;20.538;2022-08-21T05:01:00;9.38;;;5.50;;
66175;SDS011;52977;44.816;20.538;2022-08-21T05:03:27;12.38;;;6.25;;
66175;SDS011;52977;44.816;20.538;2022-08-21T05:05:53;10.68;;;5.88;;
66175;SDS011;52977;44.816;20.538;2022-08-21T05:08:20;12.18;;;5.82;;
66175;SDS011;52977;44.816;20.538;2022-08-21T05:10:48;11.00;;;5.88;;
66175;SDS011;52977;44.816;20.538;2022-08-21T05:13:14;13.98;;;6.78;;
66175;SDS011;52977;44.816;20.538;2022-08-21T05:15:40;12.30;;;6.70;;
66175;SDS011;52977;44.816;20.538;2022-08-21T05:18:07;9.43;;;5.72;;
66175;SDS011;52977;44.816;20.538;2022-08-21T05:20:33;11.23;;;6.78;;
66175;SDS011;52977;44.816;20.538;2022-08-21T05:22:59;11.10;;;6.07;;
66175;SDS011;52977;44.816;20.538;2022-08-21T05:25:26;11.82;;;6.82;;
66175;SDS011;52977;44.816;20.538;2022-08-21T05:27:52;11.88;;;6.10;;
66175;SDS011;52977;44.816;20.538;2022-08-21T05:30:18;13.02;;;6.40;;
66175;SDS011;52977;44.816;20.538;2022-08-21T05:32:45;10.48;;;5.70;;
66175;SDS011;52977;44.816;20.538;2022-08-21T05:35:12;8.43;;;5.00;;
66175;SDS011;52977;44.816;20.538;2022-08-21T05:37:38;9.45;;;5.35;;
66175;SDS011;52977;44.816;20.538;2022-08-21T05:40:05;8.85;;;5.13;;
66175;SDS011;52977;44.816;20.538;2022-08-21T05:42:32;9.52;;;5.50;;
66175;SDS011;52977;44.816;20.538;2022-08-21T05:44:58;9.25;;;4.93;;
66175;SDS011;52977;44.816;20.538;2022-08-21T05:47:23;10.07;;;5.22;;
66175;SDS011;52977;44.816;20.538;2022-08-21T05:49:49;7.55;;;4.15;;
66175;SDS011;52977;44.816;20.538;2022-08-21T05:52:18;9.27;;;4.30;;
66175;SDS011;52977;44.816;20.538;2022-08-21T05:54:46;10.50;;;4.30;;
66175;SDS011;52977;44.816;20.538;2022-08-21T05:57:12;7.55;;;3.92;;
66175;SDS011;52977;44.816;20.538;2022-08-21T05:59:38;8.13;;;4.18;;
66175;SDS011;52977;44.816;20.538;2022-08-21T06:02:03;7.28;;;3.70;;
66175;SDS011;52977;44.816;20.538;2022-08-21T06:04:29;9.20;;;4.40;;
66175;SDS011;52977;44.816;20.538;2022-08-21T06:06:55;6.53;;;3.95;;
66175;SDS011;52977;44.816;20.538;2022-08-21T06:09:20;7.97;;;3.70;;
66175;SDS011;52977;44.816;20.538;2022-08-21T06:11:46;7.57;;;4.10;;
66175;SDS011;52977;44.816;20.538;2022-08-21T06:14:15;6.57;;;3.95;;
66175;SDS011;52977;44.816;20.538;2022-08-21T06:16:41;6.05;;;3.70;;
66175;SDS011;52977;44.816;20.538;2022-08-21T06:19:07;6.53;;;3.75;;
66175;SDS011;52977;44.816;20.538;2022-08-21T06:21:33;9.48;;;5.05;;
66175;SDS011;52977;44.816;20.538;2022-08-21T06:23:58;9.63;;;4.93;;
66175;SDS011;52977;44.816;20.538;2022-08-21T06:26:24;9.88;;;4.45;;
66175;SDS011;52977;44.816;20.538;2022-08-21T06:28:50;8.40;;;4.57;;
66175;SDS011;52977;44.816;20.538;2022-08-21T06:31:17;8.07;;;4.60;;
66175;SDS011;52977;44.816;20.538;2022-08-21T06:33:44;11.18;;;4.60;;
66175;SDS011;52977;44.816;20.538;2022-08-21T06:36:10;10.93;;;4.63;;
66175;SDS011;52977;44.816;20.538;2022-08-21T06:38:37;9.32;;;4.70;;
66175;SDS011;52977;44.816;20.538;2022-08-21T06:41:03;10.85;;;4.65;;
66175;SDS011;52977;44.816;20.538;2022-08-21T06:43:29;8.20;;;4.53;;
66175;SDS011;52977;44.816;20.538;2022-08-21T06:45:55;12.40;;;5.15;;
66175;SDS011;52977;44.816;20.538;2022-08-21T06:48:21;10.25;;;4.55;;
66175;SDS011;52977;44.816;20.538;2022-08-21T06:50:47;8.77;;;5.18;;
66175;SDS011;52977;44.816;20.538;2022-08-21T06:53:13;9.98;;;5.38;;
66175;SDS011;52977;44.816;20.538;2022-08-21T06:55:40;30.05;;;13.88;;
66175;SDS011;52977;44.816;20.538;2022-08-21T06:58:07;14.77;;;7.03;;
66175;SDS011;52977;44.816;20.538;2022-08-21T07:00:35;8.60;;;4.90;;
66175;SDS011;52977;44.816;20.538;2022-08-21T07:03:04;9.30;;;4.85;;
66175;SDS011;52977;44.816;20.538;2022-08-21T07:05:29;8.73;;;4.35;;
66175;SDS011;52977;44.816;20.538;2022-08-21T07:07:55;9.48;;;4.05;;
66175;SDS011;52977;44.816;20.538;2022-08-21T07:10:22;7.85;;;4.18;;
66175;SDS011;52977;44.816;20.538;2022-08-21T07:12:49;7.63;;;4.03;;
66175;SDS011;52977;44.816;20.538;2022-08-21T07:15:15;7.03;;;3.78;;
66175;SDS011;52977;44.816;20.538;2022-08-21T07:17:41;6.80;;;3.22;;
66175;SDS011;52977;44.816;20.538;2022-08-21T07:20:06;6.88;;;4.15;;
66175;SDS011;52977;44.816;20.538;2022-08-21T07:22:32;7.05;;;3.53;;
66175;SDS011;52977;44.816;20.538;2022-08-21T07:25:00;7.72;;;3.30;;
66175;SDS011;52977;44.816;20.538;2022-08-21T07:27:26;6.32;;;2.80;;
66175;SDS011;52977;44.816;20.538;2022-08-21T07:29:52;8.98;;;3.33;;
66175;SDS011;52977;44.816;20.538;2022-08-21T07:32:18;6.88;;;3.50;;
66175;SDS011;52977;44.816;20.538;2022-08-21T07:34:43;7.07;;;3.83;;
66175;SDS011;52977;44.816;20.538;2022-08-21T07:37:09;7.10;;;3.88;;
66175;SDS011;52977;44.816;20.538;2022-08-21T07:39:35;7.72;;;4.05;;
66175;SDS011;52977;44.816;20.538;2022-08-21T07:42:01;7.22;;;3.75;;
66175;SDS011;52977;44.816;20.538;2022-08-21T07:44:28;6.20;;;3.40;;
66175;SDS011;52977;44.816;20.538;2022-08-21T07:46:54;6.63;;;3.40;;
66175;SDS011;52977;44.816;20.538;2022-08-21T07:49:20;7.60;;;3.67;;
66175;SDS011;52977;44.816;20.538;2022-08-21T07:51:45;7.95;;;4.25;;
66175;SDS011;52977;44.816;20.538;2022-08-21T07:54:11;9.30;;;4.15;;
66175;SDS011;52977;44.816;20.538;2022-08-21T07:56:37;6.50;;;3.30;;
66175;SDS011;52977;44.816;20.538;2022-08-21T07:59:02;5.50;;;3.55;;
66175;SDS011;52977;44.816;20.538;2022-08-21T08:01:28;6.85;;;3.80;;
66175;SDS011;52977;44.816;20.538;2022-08-21T08:03:55;8.80;;;3.85;;
66175;SDS011;52977;44.816;20.538;2022-08-21T08:06:21;7.97;;;4.50;;
66175;SDS011;52977;44.816;20.538;2022-08-21T08:08:48;8.57;;;3.97;;
66175;SDS011;52977;44.816;20.538;2022-08-21T08:11:14;9.85;;;5.10;;
66175;SDS011;52977;44.816;20.538;2022-08-21T08:13:43;8.68;;;4.45;;
66175;SDS011;52977;44.816;20.538;2022-08-21T08:16:11;9.68;;;5.30;;
66175;SDS011;52977;44.816;20.538;2022-08-21T08:18:37;11.57;;;5.70;;
66175;SDS011;52977;44.816;20.538;2022-08-21T08:21:04;10.55;;;5.60;;
66175;SDS011;52977;44.816;20.538;2022-08-21T08:23:30;15.25;;;5.85;;
66175;SDS011;52977;44.816;20.538;2022-08-21T08:25:57;10.23;;;5.25;;
66175;SDS011;52977;44.816;20.538;2022-08-21T08:28:24;10.75;;;6.10;;
66175;SDS011;52977;44.816;20.538;2022-08-21T08:30:50;9.27;;;5.72;;
66175;SDS011;52977;44.816;20.538;2022-08-21T08:33:17;10.43;;;5.85;;
66175;SDS011;52977;44.816;20.538;2022-08-21T08:35:44;9.02;;;5.47;;
66175;SDS011;52977;44.816;20.538;2022-08-21T08:38:12;13.48;;;6.65;;
66175;SDS011;52977;44.816;20.538;2022-08-21T08:40:46;15.50;;;7.47;;
66175;SDS011;52977;44.816;20.538;2022-08-21T08:43:18;18.48;;;8.52;;
66175;SDS011;52977;44.816;20.538;2022-08-21T08:45:45;16.98;;;8.25;;
66175;SDS011;52977;44.816;20.538;2022-08-21T08:48:16;16.23;;;7.65;;
66175;SDS011;52977;44.816;20.538;2022-08-21T08:51:06;17.77;;;8.32;;
66175;SDS011;52977;44.816;20.538;2022-08-21T08:53:45;15.68;;;7.80;;
66175;SDS011;52977;44.816;20.538;2022-08-21T08:56:16;22.45;;;10.43;;
66175;SDS011;52977;44.816;20.538;2022-08-21T08:58:46;16.70;;;8.35;;
66175;SDS011;52977;44.816;20.538;2022-08-21T09:01:17;17.73;;;8.15;;
66175;SDS011;52977;44.816;20.538;2022-08-21T09:03:45;14.48;;;7.60;;
66175;SDS011;52977;44.816;20.538;2022-08-21T09:09:08;13.43;;;7.82;;
66175;SDS011;52977;44.816;20.538;2022-08-21T09:11:46;16.27;;;8.30;;
66175;SDS011;52977;44.816;20.538;2022-08-21T09:26:24;12.95;;;7.93;;
66175;SDS011;52977;44.816;20.538;2022-08-21T09:28:57;16.88;;;8.75;;
66175;SDS011;52977;44.816;20.538;2022-08-21T09:31:43;13.13;;;7.10;;
66175;SDS011;52977;44.816;20.538;2022-08-21T09:34:10;12.77;;;6.82;;
66175;SDS011;52977;44.816;20.538;2022-08-21T09:36:41;18.83;;;8.63;;
66175;SDS011;52977;44.816;20.538;2022-08-21T09:39:09;12.90;;;6.18;;
66175;SDS011;52977;44.816;20.538;2022-08-21T09:41:37;15.25;;;6.40;;
66175;SDS011;52977;44.816;20.538;2022-08-21T09:44:05;13.75;;;7.03;;
66175;SDS011;52977;44.816;20.538;2022-08-21T09:46:33;12.75;;;5.72;;
66175;SDS011;52977;44.816;20.538;2022-08-21T09:49:00;11.23;;;5.32;;
66175;SDS011;52977;44.816;20.538;2022-08-21T09:51:35;13.57;;;7.38;;
66175;SDS011;52977;44.816;20.538;2022-08-21T09:56:37;11.52;;;5.88;;
66175;SDS011;52977;44.816;20.538;2022-08-21T09:59:40;12.52;;;5.15;;
66175;SDS011;52977;44.816;20.538;2022-08-21T10:05:02;7.75;;;3.78;;
66175;SDS011;52977;44.816;20.538;2022-08-21T10:07:30;6.63;;;3.63;;
66175;SDS011;52977;44.816;20.538;2022-08-21T10:09:58;7.18;;;3.10;;
66175;SDS011;52977;44.816;20.538;2022-08-21T10:13:13;5.80;;;2.53;;
66175;SDS011;52977;44.816;20.538;2022-08-21T10:20:46;6.93;;;3.13;;
66175;SDS011;52977;44.816;20.538;2022-08-21T10:26:05;8.20;;;3.90;;
66175;SDS011;52977;44.816;20.538;2022-08-21T10:42:49;6.35;;;3.33;;
66175;SDS011;52977;44.816;20.538;2022-08-21T10:48:20;8.27;;;3.90;;
66175;SDS011;52977;44.816;20.538;2022-08-21T10:56:19;7.90;;;4.10;;
66175;SDS011;52977;44.816;20.538;2022-08-21T11:01:34;9.65;;;4.38;;
66175;SDS011;52977;44.816;20.538;2022-08-21T11:06:59;38.53;;;5.80;;
66175;SDS011;52977;44.816;20.538;2022-08-21T11:09:31;10.55;;;3.50;;
66175;SDS011;52977;44.816;20.538;2022-08-21T11:11:58;7.90;;;3.47;;
66175;SDS011;52977;44.816;20.538;2022-08-21T11:17:22;8.45;;;3.50;;
66175;SDS011;52977;44.816;20.538;2022-08-21T11:20:01;12.20;;;3.80;;
66175;SDS011;52977;44.816;20.538;2022-08-21T11:22:35;10.02;;;3.67;;
66175;SDS011;52977;44.816;20.538;2022-08-21T11:25:09;9.30;;;4.35;;
66175;SDS011;52977;44.816;20.538;2022-08-21T11:27:44;5.90;;;3.03;;
66175;SDS011;52977;44.816;20.538;2022-08-21T11:30:15;9.40;;;3.28;;
66175;SDS011;52977;44.816;20.538;2022-08-21T11:32:45;7.25;;;3.17;;
66175;SDS011;52977;44.816;20.538;2022-08-21T11:35:43;5.80;;;2.97;;
66175;SDS011;52977;44.816;20.538;2022-08-21T11:41:18;6.18;;;3.00;;
66175;SDS011;52977;44.816;20.538;2022-08-21T11:54:32;4.55;;;2.20;;
66175;SDS011;52977;44.816;20.538;2022-08-21T11:57:00;4.82;;;2.40;;
66175;SDS011;52977;44.816;20.538;2022-08-21T12:02:01;6.28;;;2.60;;
66175;SDS011;52977;44.816;20.538;2022-08-21T12:04:32;5.37;;;2.90;;
66175;SDS011;52977;44.816;20.538;2022-08-21T12:07:15;5.82;;;2.25;;
66175;SDS011;52977;44.816;20.538;2022-08-21T12:09:52;5.57;;;2.67;;
66175;SDS011;52977;44.816;20.538;2022-08-21T12:22:54;6.28;;;3.70;;
66175;SDS011;52977;44.816;20.538;2022-08-21T12:25:47;8.10;;;3.42;;
66175;SDS011;52977;44.816;20.538;2022-08-21T12:28:25;6.93;;;3.70;;
66175;SDS011;52977;44.816;20.538;2022-08-21T12:30:53;7.40;;;4.55;;
66175;SDS011;52977;44.816;20.538;2022-08-21T12:33:23;7.38;;;4.07;;
66175;SDS011;52977;44.816;20.538;2022-08-21T12:35:52;6.63;;;3.67;;
66175;SDS011;52977;44.816;20.538;2022-08-21T12:39:03;7.65;;;4.63;;
66175;SDS011;52977;44.816;20.538;2022-08-21T12:41:34;10.20;;;5.57;;
66175;SDS011;52977;44.816;20.538;2022-08-21T12:44:12;10.18;;;5.43;;
66175;SDS011;52977;44.816;20.538;2022-08-21T12:46:45;9.82;;;5.15;;
66175;SDS011;52977;44.816;20.538;2022-08-21T12:49:23;9.52;;;5.22;;
66175;SDS011;52977;44.816;20.538;2022-08-21T12:52:00;11.10;;;5.32;;
66175;SDS011;52977;44.816;20.538;2022-08-21T12:54:31;11.68;;;5.30;;
66175;SDS011;52977;44.816;20.538;2022-08-21T12:57:04;10.07;;;5.45;;
66175;SDS011;52977;44.816;20.538;2022-08-21T12:59:31;12.15;;;5.40;;
66175;SDS011;52977;44.816;20.538;2022-08-21T13:02:03;9.57;;;5.63;;
66175;SDS011;52977;44.816;20.538;2022-08-21T13:04:39;10.23;;;5.68;;
66175;SDS011;52977;44.816;20.538;2022-08-21T13:07:07;9.50;;;5.47;;
66175;SDS011;52977;44.816;20.538;2022-08-21T13:09:44;13.35;;;5.35;;
66175;SDS011;52977;44.816;20.538;2022-08-21T13:12:15;8.30;;;4.32;;
66175;SDS011;52977;44.816;20.538;2022-08-21T13:14:43;10.30;;;5.07;;
66175;SDS011;52977;44.816;20.538;2022-08-21T13:17:12;9.10;;;5.28;;
66175;SDS011;52977;44.816;20.538;2022-08-21T13:19:41;9.93;;;5.40;;
66175;SDS011;52977;44.816;20.538;2022-08-21T13:22:14;8.95;;;4.88;;
66175;SDS011;52977;44.816;20.538;2022-08-21T13:24:40;8.90;;;5.00;;
66175;SDS011;52977;44.816;20.538;2022-08-21T13:30:00;6.70;;;3.65;;
66175;SDS011;52977;44.816;20.538;2022-08-21T13:32:33;7.93;;;4.22;;
66175;SDS011;52977;44.816;20.538;2022-08-21T13:35:16;8.40;;;4.57;;
66175;SDS011;52977;44.816;20.538;2022-08-21T13:37:44;8.25;;;3.95;;
66175;SDS011;52977;44.816;20.538;2022-08-21T13:40:14;6.80;;;3.53;;
66175;SDS011;52977;44.816;20.538;2022-08-21T13:42:43;5.45;;;2.92;;
66175;SDS011;52977;44.816;20.538;2022-08-21T13:45:12;6.18;;;3.42;;
66175;SDS011;52977;44.816;20.538;2022-08-21T13:47:43;4.82;;;2.40;;
66175;SDS011;52977;44.816;20.538;2022-08-21T13:50:12;4.97;;;2.63;;
66175;SDS011;52977;44.816;20.538;2022-08-21T13:52:54;4.40;;;2.58;;
66175;SDS011;52977;44.816;20.538;2022-08-21T13:55:23;5.35;;;2.50;;
66175;SDS011;52977;44.816;20.538;2022-08-21T13:58:01;4.43;;;2.42;;
66175;SDS011;52977;44.816;20.538;2022-08-21T14:00:29;4.38;;;2.28;;
66175;SDS011;52977;44.816;20.538;2022-08-21T14:03:01;5.18;;;2.33;;
66175;SDS011;52977;44.816;20.538;2022-08-21T14:05:32;4.05;;;2.50;;
66175;SDS011;52977;44.816;20.538;2022-08-21T14:10:41;3.55;;;2.20;;
66175;SDS011;52977;44.816;20.538;2022-08-21T14:13:26;4.15;;;2.55;;
66175;SDS011;52977;44.816;20.538;2022-08-21T14:15:59;3.60;;;2.20;;
66175;SDS011;52977;44.816;20.538;2022-08-21T14:18:27;4.40;;;2.30;;
66175;SDS011;52977;44.816;20.538;2022-08-21T14:21:06;3.63;;;1.95;;
66175;SDS011;52977;44.816;20.538;2022-08-21T14:23:33;3.63;;;2.05;;
66175;SDS011;52977;44.816;20.538;2022-08-21T14:25:59;5.38;;;2.42;;
66175;SDS011;52977;44.816;20.538;2022-08-21T14:28:28;4.78;;;2.15;;
66175;SDS011;52977;44.816;20.538;2022-08-21T14:30:57;4.20;;;2.08;;
66175;SDS011;52977;44.816;20.538;2022-08-21T14:33:33;5.47;;;2.72;;
66175;SDS011;52977;44.816;20.538;2022-08-21T14:35:58;9.02;;;4.30;;
66175;SDS011;52977;44.816;20.538;2022-08-21T14:38:26;6.82;;;3.83;;
66175;SDS011;52977;44.816;20.538;2022-08-21T14:40:54;7.13;;;4.25;;
66175;SDS011;52977;44.816;20.538;2022-08-21T14:43:22;7.03;;;4.05;;
66175;SDS011;52977;44.816;20.538;2022-08-21T14:45:50;7.50;;;4.35;;
66175;SDS011;52977;44.816;20.538;2022-08-21T14:48:16;8.40;;;4.82;;
66175;SDS011;52977;44.816;20.538;2022-08-21T14:50:43;13.13;;;4.97;;
66175;SDS011;52977;44.816;20.538;2022-08-21T14:53:09;10.30;;;5.80;;
66175;SDS011;52977;44.816;20.538;2022-08-21T14:55:36;9.02;;;4.53;;
66175;SDS011;52977;44.816;20.538;2022-08-21T14:58:22;6.75;;;3.85;;
66175;SDS011;52977;44.816;20.538;2022-08-21T15:00:50;8.10;;;4.57;;
66175;SDS011;52977;44.816;20.538;2022-08-21T15:03:18;7.97;;;4.53;;
66175;SDS011;52977;44.816;20.538;2022-08-21T15:05:44;7.53;;;4.35;;
66175;SDS011;52977;44.816;20.538;2022-08-21T15:08:10;7.38;;;4.13;;
66175;SDS011;52977;44.816;20.538;2022-08-21T15:10:36;7.35;;;4.30;;
66175;SDS011;52977;44.816;20.538;2022-08-21T15:13:01;8.77;;;4.28;;
66175;SDS011;52977;44.816;20.538;2022-08-21T15:15:29;7.88;;;4.00;;
66175;SDS011;52977;44.816;20.538;2022-08-21T15:17:57;8.68;;;3.70;;
66175;SDS011;52977;44.816;20.538;2022-08-21T15:20:23;10.07;;;4.75;;
66175;SDS011;52977;44.816;20.538;2022-08-21T15:22:48;7.65;;;4.68;;
66175;SDS011;52977;44.816;20.538;2022-08-21T15:25:14;9.23;;;4.70;;
66175;SDS011;52977;44.816;20.538;2022-08-21T15:27:39;13.38;;;4.63;;
66175;SDS011;52977;44.816;20.538;2022-08-21T15:30:05;10.10;;;4.47;;
66175;SDS011;52977;44.816;20.538;2022-08-21T15:32:31;7.53;;;4.80;;
66175;SDS011;52977;44.816;20.538;2022-08-21T15:34:57;9.15;;;4.45;;
66175;SDS011;52977;44.816;20.538;2022-08-21T15:37:23;8.68;;;5.07;;
66175;SDS011;52977;44.816;20.538;2022-08-21T15:39:50;10.05;;;5.55;;
66175;SDS011;52977;44.816;20.538;2022-08-21T15:42:17;10.60;;;5.57;;
66175;SDS011;52977;44.816;20.538;2022-08-21T15:44:43;8.20;;;5.25;;
66175;SDS011;52977;44.816;20.538;2022-08-21T15:47:11;9.52;;;4.80;;
66175;SDS011;52977;44.816;20.538;2022-08-21T15:49:39;10.82;;;5.43;;
66175;SDS011;52977;44.816;20.538;2022-08-21T15:52:09;8.80;;;4.88;;
66175;SDS011;52977;44.816;20.538;2022-08-21T15:54:35;9.60;;;5.03;;
66175;SDS011;52977;44.816;20.538;2022-08-21T15:57:01;9.55;;;5.18;;
66175;SDS011;52977;44.816;20.538;2022-08-21T15:59:27;8.05;;;4.85;;
66175;SDS011;52977;44.816;20.538;2022-08-21T16:04:26;8.88;;;5.05;;
66175;SDS011;52977;44.816;20.538;2022-08-21T16:06:52;11.23;;;4.88;;
66175;SDS011;52977;44.816;20.538;2022-08-21T16:09:19;11.48;;;5.40;;
66175;SDS011;52977;44.816;20.538;2022-08-21T16:11:44;11.65;;;5.78;;
66175;SDS011;52977;44.816;20.538;2022-08-21T16:14:14;11.35;;;4.80;;
66175;SDS011;52977;44.816;20.538;2022-08-21T16:16:41;10.10;;;5.55;;
66175;SDS011;52977;44.816;20.538;2022-08-21T16:19:07;11.52;;;5.30;;